sensor_id;sensor_type;location;lat;lon;timestamp;pressure;altitude;pressure_sealevel;temperature;humidity
13068;BME280;6600;51.362;6.686;2023-08-06T00:01:37;100018.81;;;17.16;100.00
13068;BME280;6600;51.362;6.686;2023-08-06T00:04:03;100010.19;;;17.09;100.00
13068;BME280;6600;51.362;6.686;2023-08-06T00:06:28;100013.94;;;17.13;100.00
13068;BME280;6600;51.362;6.686;2023-08-06T00:08:54;100017.47;;;17.04;100.00
13068;BME280;6600;51.362;6.686;2023-08-06T00:11:20;100016.97;;;16.92;100.00
13068;BME280;6600;51.362;6.686;2023-08-06T00:13:45;100014.25;;;16.97;100.00
13068;BME280;6600;51.362;6.686;2023-08-06T00:16:11;100007.22;;;16.91;100.00
13068;BME280;6600;51.362;6.686;2023-08-06T00:18:37;100007.22;;;16.91;100.00
13068;BME280;6600;51.362;6.686;2023-08-06T00:21:03;100003.44;;;16.87;100.00
13068;BME280;6600;51.362;6.686;2023-08-06T00:23:28;99996.97;;;16.83;100.00
13068;BME280;6600;51.362;6.686;2023-08-06T00:25:53;99997.50;;;16.85;100.00
13068;BME280;6600;51.362;6.686;2023-08-06T00:28:19;99989.69;;;16.78;100.00
13068;BME280;6600;51.362;6.686;2023-08-06T00:30:44;99995.34;;;16.82;100.00
13068;BME280;6600;51.362;6.686;2023-08-06T00:33:10;99979.66;;;16.89;100.00
13068;BME280;6600;51.362;6.686;2023-08-06T00:35:35;99992.06;;;16.90;100.00
13068;BME280;6600;51.362;6.686;2023-08-06T00:38:00;99987.78;;;16.89;100.00
13068;BME280;6600;51.362;6.686;2023-08-06T00:40:25;99992.91;;;16.80;100.00
13068;BME280;6600;51.362;6.686;2023-08-06T00:42:53;99988.06;;;16.67;100.00
13068;BME280;6600;51.362;6.686;2023-08-06T00:45:19;99995.91;;;16.74;100.00
13068;BME280;6600;51.362;6.686;2023-08-06T00:47:44;99985.63;;;16.71;100.00
13068;BME280;6600;51.362;6.686;2023-08-06T00:50:11;99989.97;;;16.66;100.00
13068;BME280;6600;51.362;6.686;2023-08-06T00:52:36;99987.81;;;16.63;100.00
13068;BME280;6600;51.362;6.686;2023-08-06T00:55:02;99986.16;;;16.52;100.00
13068;BME280;6600;51.362;6.686;2023-08-06T00:57:27;99982.91;;;16.45;100.00
13068;BME280;6600;51.362;6.686;2023-08-06T00:59:53;99986.19;;;16.47;100.00
13068;BME280;6600;51.362;6.686;2023-08-06T01:02:19;99978.59;;;16.54;100.00
13068;BME280;6600;51.362;6.686;2023-08-06T01:04:44;99991.03;;;16.65;100.00
13068;BME280;6600;51.362;6.686;2023-08-06T01:09:50;99981.28;;;16.80;100.00
13068;BME280;6600;51.362;6.686;2023-08-06T01:15:15;99981.81;;;16.77;100.00
13068;BME280;6600;51.362;6.686;2023-08-06T01:17:45;99975.88;;;16.85;100.00
13068;BME280;6600;51.362;6.686;2023-08-06T01:20:10;99973.72;;;16.82;100.00
13068;BME280;6600;51.362;6.686;2023-08-06T01:22:36;99968.84;;;16.79;100.00
13068;BME280;6600;51.362;6.686;2023-08-06T01:25:01;99972.59;;;16.83;100.00
13068;BME280;6600;51.362;6.686;2023-08-06T01:30:41;99976.94;;;16.84;100.00
13068;BME280;6600;51.362;6.686;2023-08-06T01:33:03;99975.31;;;16.88;100.00
13068;BME280;6600;51.362;6.686;2023-08-06T01:35:29;99971.78;;;16.87;100.00
13068;BME280;6600;51.362;6.686;2023-08-06T01:37:55;99966.41;;;16.82;100.00
13068;BME280;6600;51.362;6.686;2023-08-06T01:40:21;99963.16;;;16.85;100.00
13068;BME280;6600;51.362;6.686;2023-08-06T01:42:47;99962.34;;;16.85;100.00
13068;BME280;6600;51.362;6.686;2023-08-06T01:45:12;99963.69;;;16.87;100.00
13068;BME280;6600;51.362;6.686;2023-08-06T01:47:38;99960.19;;;16.77;100.00
13068;BME280;6600;51.362;6.686;2023-08-06T01:50:03;99961.81;;;16.78;100.00
13068;BME280;6600;51.362;6.686;2023-08-06T01:52:29;99968.84;;;16.74;100.00
13068;BME280;6600;51.362;6.686;2023-08-06T01:54:55;99962.88;;;16.77;100.00
13068;BME280;6600;51.362;6.686;2023-08-06T01:57:20;99962.34;;;16.85;100.00
13068;BME280;6600;51.362;6.686;2023-08-06T01:59:46;99958.03;;;16.79;100.00
13068;BME280;6600;51.362;6.686;2023-08-06T02:02:11;99948.81;;;16.85;100.00
13068;BME280;6600;51.362;6.686;2023-08-06T02:04:37;99950.69;;;16.84;100.00
13068;BME280;6600;51.362;6.686;2023-08-06T02:07:02;99948.78;;;16.90;100.00
13068;BME280;6600;51.362;6.686;2023-08-06T02:09:27;99948.78;;;16.90;100.00
13068;BME280;6600;51.362;6.686;2023-08-06T02:11:53;99945.53;;;16.88;100.00
13068;BME280;6600;51.362;6.686;2023-08-06T02:14:18;99947.69;;;16.96;100.00
13068;BME280;6600;51.362;6.686;2023-08-06T02:16:43;99952.81;;;16.97;100.00
13068;BME280;6600;51.362;6.686;2023-08-06T02:19:09;99949.88;;;16.89;100.00
13068;BME280;6600;51.362;6.686;2023-08-06T02:21:34;99951.81;;;16.78;100.00
13068;BME280;6600;51.362;6.686;2023-08-06T02:23:59;99948.81;;;16.80;100.00
13068;BME280;6600;51.362;6.686;2023-08-06T02:26:25;99952.66;;;16.69;100.00
13068;BME280;6600;51.362;6.686;2023-08-06T02:28:50;99955.84;;;16.76;100.00
13068;BME280;6600;51.362;6.686;2023-08-06T02:31:15;99945.88;;;16.66;100.00
13068;BME280;6600;51.362;6.686;2023-08-06T02:33:40;99945.88;;;16.61;100.00
13068;BME280;6600;51.362;6.686;2023-08-06T02:36:06;99939.66;;;16.60;100.00
13068;BME280;6600;51.362;6.686;2023-08-06T02:38:32;99935.06;;;16.56;100.00
13068;BME280;6600;51.362;6.686;2023-08-06T02:40:58;99929.91;;;16.54;100.00
13068;BME280;6600;51.362;6.686;2023-08-06T02:43:23;99937.75;;;16.66;100.00
13068;BME280;6600;51.362;6.686;2023-08-06T02:45:48;99936.41;;;16.58;100.00
13068;BME280;6600;51.362;6.686;2023-08-06T02:48:14;99933.69;;;16.53;100.00
13068;BME280;6600;51.362;6.686;2023-08-06T02:50:40;99932.63;;;16.59;100.00
13068;BME280;6600;51.362;6.686;2023-08-06T02:53:07;99926.13;;;16.55;100.00
13068;BME280;6600;51.362;6.686;2023-08-06T02:55:32;99929.09;;;16.54;100.00
13068;BME280;6600;51.362;6.686;2023-08-06T02:57:59;99921.25;;;16.52;100.00
13068;BME280;6600;51.362;6.686;2023-08-06T03:00:25;99915.88;;;16.47;100.00
13068;BME280;6600;51.362;6.686;2023-08-06T03:02:50;99919.09;;;16.54;100.00
13068;BME280;6600;51.362;6.686;2023-08-06T03:05:16;99918.84;;;16.61;100.00
13068;BME280;6600;51.362;6.686;2023-08-06T03:07:41;99922.34;;;16.66;100.00
13068;BME280;6600;51.362;6.686;2023-08-06T03:10:06;99912.88;;;16.64;100.00
13068;BME280;6600;51.362;6.686;2023-08-06T03:12:32;99915.84;;;16.52;100.00
13068;BME280;6600;51.362;6.686;2023-08-06T03:14:57;99912.88;;;16.54;100.00
13068;BME280;6600;51.362;6.686;2023-08-06T03:17:22;99912.63;;;16.60;100.00
13068;BME280;6600;51.362;6.686;2023-08-06T03:19:48;99907.22;;;16.50;100.00
13068;BME280;6600;51.362;6.686;2023-08-06T03:22:13;99912.09;;;16.43;100.00
13068;BME280;6600;51.362;6.686;2023-08-06T03:24:38;99906.09;;;16.51;100.00
13068;BME280;6600;51.362;6.686;2023-08-06T03:27:04;99909.66;;;16.47;100.00
13068;BME280;6600;51.362;6.686;2023-08-06T03:29:29;99910.97;;;16.49;100.00
13068;BME280;6600;51.362;6.686;2023-08-06T03:31:55;99916.69;;;16.58;100.00
13068;BME280;6600;51.362;6.686;2023-08-06T03:34:20;99911.81;;;16.60;100.00
13068;BME280;6600;51.362;6.686;2023-08-06T03:36:45;99911.50;;;16.66;100.00
13068;BME280;6600;51.362;6.686;2023-08-06T03:39:11;99915.25;;;16.76;100.00
13068;BME280;6600;51.362;6.686;2023-08-06T03:41:36;99912.31;;;16.67;100.00
13068;BME280;6600;51.362;6.686;2023-08-06T03:44:01;99914.47;;;16.75;100.00
13068;BME280;6600;51.362;6.686;2023-08-06T03:46:29;99899.59;;;16.73;100.00
13068;BME280;6600;51.362;6.686;2023-08-06T03:48:54;99912.03;;;16.79;100.00
13068;BME280;6600;51.362;6.686;2023-08-06T03:51:19;99895.84;;;16.63;100.00
13068;BME280;6600;51.362;6.686;2023-08-06T03:53:45;99900.72;;;16.46;100.00
13068;BME280;6600;51.362;6.686;2023-08-06T03:56:10;99908.03;;;16.51;100.00
13068;BME280;6600;51.362;6.686;2023-08-06T03:58:35;99900.97;;;16.45;100.00
13068;BME280;6600;51.362;6.686;2023-08-06T04:01:01;99902.38;;;16.37;100.00
13068;BME280;6600;51.362;6.686;2023-08-06T04:03:28;99906.41;;;16.40;100.00
13068;BME280;6600;51.362;6.686;2023-08-06T04:05:54;99909.34;;;16.48;100.00
13068;BME280;6600;51.362;6.686;2023-08-06T04:08:19;99908.59;;;16.33;100.00
13068;BME280;6600;51.362;6.686;2023-08-06T04:10:45;99898.59;;;16.33;100.00
13068;BME280;6600;51.362;6.686;2023-08-06T04:13:10;99899.69;;;16.22;100.00
13068;BME280;6600;51.362;6.686;2023-08-06T04:15:35;99897.25;;;16.31;100.00
13068;BME280;6600;51.362;6.686;2023-08-06T04:18:01;99901.28;;;16.43;100.00
13068;BME280;6600;51.362;6.686;2023-08-06T04:20:26;99907.25;;;16.30;100.00
13068;BME280;6600;51.362;6.686;2023-08-06T04:22:54;99901.03;;;16.30;100.00
13068;BME280;6600;51.362;6.686;2023-08-06T04:25:20;99900.22;;;16.29;100.00
13068;BME280;6600;51.362;6.686;2023-08-06T04:27:49;99892.06;;;16.34;100.00
13068;BME280;6600;51.362;6.686;2023-08-06T04:30:14;99900.47;;;16.33;100.00
13068;BME280;6600;51.362;6.686;2023-08-06T04:32:40;99903.44;;;16.36;100.00
13068;BME280;6600;51.362;6.686;2023-08-06T04:35:06;99901.78;;;16.45;100.00
13068;BME280;6600;51.362;6.686;2023-08-06T04:37:31;99907.22;;;16.35;100.00
13068;BME280;6600;51.362;6.686;2023-08-06T04:39:57;99901.81;;;16.35;100.00
13068;BME280;6600;51.362;6.686;2023-08-06T04:42:22;99900.19;;;16.39;100.00
13068;BME280;6600;51.362;6.686;2023-08-06T04:44:47;99901.81;;;16.40;100.00
13068;BME280;6600;51.362;6.686;2023-08-06T04:47:13;99909.91;;;16.45;100.00
13068;BME280;6600;51.362;6.686;2023-08-06T04:49:38;99908.81;;;16.46;100.00
13068;BME280;6600;51.362;6.686;2023-08-06T04:52:04;99903.97;;;16.38;100.00
13068;BME280;6600;51.362;6.686;2023-08-06T04:54:29;99906.16;;;16.36;100.00
13068;BME280;6600;51.362;6.686;2023-08-06T04:56:54;99909.94;;;16.35;100.00
13068;BME280;6600;51.362;6.686;2023-08-06T04:59:20;99912.63;;;16.35;100.00
13068;BME280;6600;51.362;6.686;2023-08-06T05:01:45;99903.97;;;16.38;100.00
13068;BME280;6600;51.362;6.686;2023-08-06T05:04:10;99910.47;;;16.47;100.00
13068;BME280;6600;51.362;6.686;2023-08-06T05:06:36;99918.03;;;16.55;100.00
13068;BME280;6600;51.362;6.686;2023-08-06T05:09:03;99909.38;;;16.58;100.00
13068;BME280;6600;51.362;6.686;2023-08-06T05:11:29;99916.41;;;16.59;100.00
13068;BME280;6600;51.362;6.686;2023-08-06T05:13:54;99910.44;;;16.62;100.00
13068;BME280;6600;51.362;6.686;2023-08-06T05:16:20;99909.88;;;16.65;100.00
13068;BME280;6600;51.362;6.686;2023-08-06T05:18:45;99916.38;;;16.70;100.00
13068;BME280;6600;51.362;6.686;2023-08-06T05:21:10;99910.44;;;16.62;100.00
13068;BME280;6600;51.362;6.686;2023-08-06T05:23:36;99923.16;;;16.67;100.00
13068;BME280;6600;51.362;6.686;2023-08-06T05:26:01;99909.59;;;16.72;100.00
13068;BME280;6600;51.362;6.686;2023-08-06T05:28:27;99919.03;;;16.85;100.00
13068;BME280;6600;51.362;6.686;2023-08-06T05:30:52;99925.53;;;16.89;100.00
13068;BME280;6600;51.362;6.686;2023-08-06T05:33:17;99925.75;;;17.02;100.00
13068;BME280;6600;51.362;6.686;2023-08-06T05:35:43;99932.50;;;17.10;100.00
13068;BME280;6600;51.362;6.686;2023-08-06T05:38:08;99933.97;;;17.36;100.00
13068;BME280;6600;51.362;6.686;2023-08-06T05:40:34;99930.09;;;17.57;100.00
13068;BME280;6600;51.362;6.686;2023-08-06T05:42:59;99934.00;;;17.80;100.00
13068;BME280;6600;51.362;6.686;2023-08-06T05:45:25;99935.25;;;17.93;100.00
13068;BME280;6600;51.362;6.686;2023-08-06T05:47:50;99934.88;;;18.09;100.00
13068;BME280;6600;51.362;6.686;2023-08-06T05:50:15;99935.16;;;18.08;100.00
13068;BME280;6600;51.362;6.686;2023-08-06T05:52:41;99938.59;;;18.18;100.00
13068;BME280;6600;51.362;6.686;2023-08-06T05:55:06;99944.81;;;18.19;100.00
13068;BME280;6600;51.362;6.686;2023-08-06T05:57:32;99944.25;;;18.22;100.00
13068;BME280;6600;51.362;6.686;2023-08-06T05:59:57;99941.03;;;18.20;100.00
13068;BME280;6600;51.362;6.686;2023-08-06T06:02:23;99949.72;;;18.17;100.00
13068;BME280;6600;51.362;6.686;2023-08-06T06:04:48;99944.22;;;18.27;100.00
13068;BME280;6600;51.362;6.686;2023-08-06T06:07:14;99944.16;;;18.32;100.00
13068;BME280;6600;51.362;6.686;2023-08-06T06:09:39;99949.91;;;18.59;100.00
13068;BME280;6600;51.362;6.686;2023-08-06T06:12:05;99947.50;;;18.82;100.00
13068;BME280;6600;51.362;6.686;2023-08-06T06:14:31;99954.41;;;18.93;99.78
13068;BME280;6600;51.362;6.686;2023-08-06T06:16:56;99954.25;;;19.08;100.00
13068;BME280;6600;51.362;6.686;2023-08-06T06:19:22;99959.75;;;19.27;99.08
13068;BME280;6600;51.362;6.686;2023-08-06T06:21:47;99959.72;;;19.50;98.11
13068;BME280;6600;51.362;6.686;2023-08-06T06:24:12;99957.97;;;19.59;97.28
13068;BME280;6600;51.362;6.686;2023-08-06T06:26:38;99954.50;;;19.73;95.66
13068;BME280;6600;51.362;6.686;2023-08-06T06:29:04;99966.88;;;19.65;95.87
13068;BME280;6600;51.362;6.686;2023-08-06T06:31:29;99967.59;;;19.28;96.62
13068;BME280;6600;51.362;6.686;2023-08-06T06:33:55;99965.06;;;19.13;97.38
13068;BME280;6600;51.362;6.686;2023-08-06T06:36:20;99976.50;;;19.10;97.73
13068;BME280;6600;51.362;6.686;2023-08-06T06:38:46;99976.59;;;19.00;98.58
13068;BME280;6600;51.362;6.686;2023-08-06T06:41:11;99979.97;;;18.92;98.63
13068;BME280;6600;51.362;6.686;2023-08-06T06:43:36;99977.75;;;18.70;99.29
13068;BME280;6600;51.362;6.686;2023-08-06T06:46:03;99979.72;;;18.64;99.83
13068;BME280;6600;51.362;6.686;2023-08-06T06:48:29;99982.94;;;18.66;100.00
13068;BME280;6600;51.362;6.686;2023-08-06T06:50:55;99970.88;;;18.49;100.00
13068;BME280;6600;51.362;6.686;2023-08-06T06:53:21;99972.50;;;18.50;100.00
13068;BME280;6600;51.362;6.686;2023-08-06T06:55:52;99974.44;;;18.44;100.00
13068;BME280;6600;51.362;6.686;2023-08-06T06:58:18;99974.47;;;18.39;100.00
13068;BME280;6600;51.362;6.686;2023-08-06T07:00:43;99973.97;;;18.37;100.00
13068;BME280;6600;51.362;6.686;2023-08-06T07:03:08;99979.41;;;18.32;100.00
13068;BME280;6600;51.362;6.686;2023-08-06T07:05:34;99979.41;;;18.37;100.00
13068;BME280;6600;51.362;6.686;2023-08-06T07:07:59;99976.72;;;18.32;100.00
13068;BME280;6600;51.362;6.686;2023-08-06T07:10:25;99980.59;;;18.21;100.00
13068;BME280;6600;51.362;6.686;2023-08-06T07:12:51;99982.78;;;18.19;100.00
13068;BME280;6600;51.362;6.686;2023-08-06T07:15:16;99997.91;;;18.25;100.00
13068;BME280;6600;51.362;6.686;2023-08-06T07:17:42;99984.81;;;18.37;100.00
13068;BME280;6600;51.362;6.686;2023-08-06T07:20:08;99987.00;;;18.35;100.00
13068;BME280;6600;51.362;6.686;2023-08-06T07:22:33;99978.94;;;18.25;100.00
13068;BME280;6600;51.362;6.686;2023-08-06T07:24:59;99991.59;;;18.35;100.00
13068;BME280;6600;51.362;6.686;2023-08-06T07:27:25;99988.56;;;18.41;100.00
13068;BME280;6600;51.362;6.686;2023-08-06T07:29:50;99988.94;;;18.30;100.00
13068;BME280;6600;51.362;6.686;2023-08-06T07:32:16;99985.94;;;18.31;100.00
13068;BME280;6600;51.362;6.686;2023-08-06T07:34:41;99992.84;;;18.52;100.00
13068;BME280;6600;51.362;6.686;2023-08-06T07:37:06;99997.66;;;18.60;100.00
13068;BME280;6600;51.362;6.686;2023-08-06T07:39:32;99997.84;;;18.69;100.00
13068;BME280;6600;51.362;6.686;2023-08-06T07:41:57;99992.25;;;18.55;99.09
13068;BME280;6600;51.362;6.686;2023-08-06T07:44:22;100000.38;;;18.60;99.34
13068;BME280;6600;51.362;6.686;2023-08-06T07:46:49;99999.47;;;18.70;99.28
13068;BME280;6600;51.362;6.686;2023-08-06T07:49:14;99995.91;;;18.75;98.62
13068;BME280;6600;51.362;6.686;2023-08-06T07:51:39;100000.53;;;18.69;97.90
13068;BME280;6600;51.362;6.686;2023-08-06T07:54:06;99999.94;;;18.77;97.64
13068;BME280;6600;51.362;6.686;2023-08-06T07:56:31;100004.44;;;18.87;97.77
13068;BME280;6600;51.362;6.686;2023-08-06T07:58:56;100002.75;;;18.96;97.58
13068;BME280;6600;51.362;6.686;2023-08-06T08:01:22;100000.72;;;19.06;97.97
13068;BME280;6600;51.362;6.686;2023-08-06T08:03:47;100005.41;;;19.48;96.70
13068;BME280;6600;51.362;6.686;2023-08-06T08:06:12;100000.19;;;19.28;94.56
13068;BME280;6600;51.362;6.686;2023-08-06T08:08:38;100009.47;;;19.51;94.71
13068;BME280;6600;51.362;6.686;2023-08-06T08:11:04;100011.75;;;19.15;95.11
13068;BME280;6600;51.362;6.686;2023-08-06T08:13:29;100007.94;;;19.16;95.31
13068;BME280;6600;51.362;6.686;2023-08-06T08:15:58;100008.41;;;19.23;95.02
13068;BME280;6600;51.362;6.686;2023-08-06T08:18:24;100013.03;;;19.23;94.75
13068;BME280;6600;51.362;6.686;2023-08-06T08:20:49;100014.81;;;19.32;95.27
13068;BME280;6600;51.362;6.686;2023-08-06T08:23:15;100012.56;;;19.39;94.05
13068;BME280;6600;51.362;6.686;2023-08-06T08:25:40;100007.69;;;19.60;93.92
13068;BME280;6600;51.362;6.686;2023-08-06T08:28:06;100014.09;;;19.69;93.93
13068;BME280;6600;51.362;6.686;2023-08-06T08:30:32;100019.56;;;19.88;93.90
13068;BME280;6600;51.362;6.686;2023-08-06T08:32:57;100016.69;;;19.98;91.94
13068;BME280;6600;51.362;6.686;2023-08-06T08:35:23;100011.34;;;20.30;90.81
13068;BME280;6600;51.362;6.686;2023-08-06T08:37:48;100010.22;;;20.63;90.97
13068;BME280;6600;51.362;6.686;2023-08-06T08:40:14;100014.19;;;20.71;88.65
13068;BME280;6600;51.362;6.686;2023-08-06T08:42:40;100009.13;;;20.64;90.97
13068;BME280;6600;51.362;6.686;2023-08-06T08:45:12;100005.72;;;20.40;91.86
13068;BME280;6600;51.362;6.686;2023-08-06T08:47:40;100010.59;;;20.06;91.50
13068;BME280;6600;51.362;6.686;2023-08-06T08:50:06;100018.66;;;19.74;92.02
13068;BME280;6600;51.362;6.686;2023-08-06T08:52:33;100018.66;;;19.74;92.38
13068;BME280;6600;51.362;6.686;2023-08-06T08:55:01;100015.56;;;19.61;93.62
13068;BME280;6600;51.362;6.686;2023-08-06T08:57:26;100022.81;;;19.47;94.49
13068;BME280;6600;51.362;6.686;2023-08-06T08:59:51;100024.75;;;19.18;93.82
13068;BME280;6600;51.362;6.686;2023-08-06T09:02:17;100028.50;;;18.98;92.72
13068;BME280;6600;51.362;6.686;2023-08-06T09:04:46;100031.81;;;18.90;92.74
13068;BME280;6600;51.362;6.686;2023-08-06T09:07:16;100034.75;;;18.99;92.91
13068;BME280;6600;51.362;6.686;2023-08-06T09:09:43;100032.88;;;18.94;93.21
13068;BME280;6600;51.362;6.686;2023-08-06T09:12:14;100038.06;;;18.91;93.66
13068;BME280;6600;51.362;6.686;2023-08-06T09:14:40;100036.97;;;18.92;93.60
13068;BME280;6600;51.362;6.686;2023-08-06T09:17:05;100038.69;;;18.83;95.24
13068;BME280;6600;51.362;6.686;2023-08-06T09:19:31;100049.03;;;18.81;95.48
13068;BME280;6600;51.362;6.686;2023-08-06T09:21:59;100045.13;;;18.92;96.13
13068;BME280;6600;51.362;6.686;2023-08-06T09:24:25;100042.34;;;18.97;95.75
13068;BME280;6600;51.362;6.686;2023-08-06T09:26:51;100044.44;;;19.05;96.13
13068;BME280;6600;51.362;6.686;2023-08-06T09:29:17;100053.56;;;19.14;96.37
13068;BME280;6600;51.362;6.686;2023-08-06T09:31:44;100054.84;;;19.22;95.15
13068;BME280;6600;51.362;6.686;2023-08-06T09:34:20;100056.28;;;19.38;95.40
13068;BME280;6600;51.362;6.686;2023-08-06T09:39:16;100047.38;;;19.37;94.42
13068;BME280;6600;51.362;6.686;2023-08-06T09:41:43;100051.41;;;19.16;94.58
13068;BME280;6600;51.362;6.686;2023-08-06T09:44:19;100056.00;;;19.15;96.06
13068;BME280;6600;51.362;6.686;2023-08-06T09:46:58;100056.00;;;19.15;95.13
13068;BME280;6600;51.362;6.686;2023-08-06T09:49:29;100053.97;;;19.02;95.56
13068;BME280;6600;51.362;6.686;2023-08-06T09:52:05;100063.97;;;19.07;96.17
13068;BME280;6600;51.362;6.686;2023-08-06T09:54:32;100061.25;;;19.07;96.75
13068;BME280;6600;51.362;6.686;2023-08-06T09:56:58;100067.41;;;18.89;97.14
13068;BME280;6600;51.362;6.686;2023-08-06T09:59:25;100071.78;;;18.85;98.78
13068;BME280;6600;51.362;6.686;2023-08-06T10:01:51;100073.06;;;18.63;100.00
13068;BME280;6600;51.362;6.686;2023-08-06T10:04:16;100069.50;;;18.29;100.00
13068;BME280;6600;51.362;6.686;2023-08-06T10:06:43;100079.84;;;18.22;100.00
13068;BME280;6600;51.362;6.686;2023-08-06T10:09:11;100061.56;;;17.99;100.00
13068;BME280;6600;51.362;6.686;2023-08-06T10:11:37;100071.44;;;17.70;100.00
13068;BME280;6600;51.362;6.686;2023-08-06T10:14:13;100073.94;;;17.61;100.00
13068;BME280;6600;51.362;6.686;2023-08-06T10:16:41;100084.00;;;17.40;100.00
13068;BME280;6600;51.362;6.686;2023-08-06T10:19:09;100089.72;;;17.34;100.00
13068;BME280;6600;51.362;6.686;2023-08-06T10:21:35;100082.94;;;17.21;100.00
13068;BME280;6600;51.362;6.686;2023-08-06T10:24:00;100080.25;;;17.21;100.00
13068;BME280;6600;51.362;6.686;2023-08-06T10:26:28;100091.91;;;17.16;100.00
13068;BME280;6600;51.362;6.686;2023-08-06T10:28:53;100102.75;;;16.96;100.00
13068;BME280;6600;51.362;6.686;2023-08-06T10:31:19;100107.34;;;16.91;100.00
13068;BME280;6600;51.362;6.686;2023-08-06T10:33:46;100104.94;;;16.74;100.00
13068;BME280;6600;51.362;6.686;2023-08-06T10:36:12;100101.94;;;16.81;100.00
13068;BME280;6600;51.362;6.686;2023-08-06T10:38:46;100105.22;;;16.67;100.00
13068;BME280;6600;51.362;6.686;2023-08-06T10:41:30;100105.16;;;16.52;100.00
13068;BME280;6600;51.362;6.686;2023-08-06T10:44:13;100112.72;;;16.50;100.00
13068;BME280;6600;51.362;6.686;2023-08-06T10:46:39;100121.88;;;16.29;100.00
13068;BME280;6600;51.362;6.686;2023-08-06T10:49:04;100128.34;;;16.13;100.00
13068;BME280;6600;51.362;6.686;2023-08-06T10:51:30;100135.28;;;15.94;100.00
13068;BME280;6600;51.362;6.686;2023-08-06T10:53:56;100142.38;;;16.05;100.00
13068;BME280;6600;51.362;6.686;2023-08-06T10:56:24;100138.31;;;16.02;100.00
13068;BME280;6600;51.362;6.686;2023-08-06T10:58:51;100146.69;;;16.06;100.00
13068;BME280;6600;51.362;6.686;2023-08-06T11:01:17;100148.56;;;15.95;100.00
13068;BME280;6600;51.362;6.686;2023-08-06T11:03:44;100156.94;;;16.04;100.00
13068;BME280;6600;51.362;6.686;2023-08-06T11:06:10;100153.66;;;15.92;100.00
13068;BME280;6600;51.362;6.686;2023-08-06T11:08:37;100161.81;;;16.02;100.00
13068;BME280;6600;51.362;6.686;2023-08-06T11:11:12;100158.81;;;16.03;100.00
13068;BME280;6600;51.362;6.686;2023-08-06T11:13:42;100173.34;;;15.87;100.00
13068;BME280;6600;51.362;6.686;2023-08-06T11:16:08;100158.53;;;15.95;100.00
13068;BME280;6600;51.362;6.686;2023-08-06T11:18:34;100167.13;;;15.87;100.00
13068;BME280;6600;51.362;6.686;2023-08-06T11:21:01;100168.25;;;15.91;100.00
13068;BME280;6600;51.362;6.686;2023-08-06T11:23:27;100166.38;;;15.96;100.00
13068;BME280;6600;51.362;6.686;2023-08-06T11:25:53;100167.19;;;15.97;100.00
13068;BME280;6600;51.362;6.686;2023-08-06T11:28:19;100172.91;;;16.05;100.00
13068;BME280;6600;51.362;6.686;2023-08-06T11:30:47;100165.28;;;15.97;100.00
13068;BME280;6600;51.362;6.686;2023-08-06T11:33:12;100169.09;;;16.01;100.00
13068;BME280;6600;51.362;6.686;2023-08-06T11:35:37;100175.31;;;16.02;100.00
13068;BME280;6600;51.362;6.686;2023-08-06T11:38:03;100174.75;;;15.95;100.00
13068;BME280;6600;51.362;6.686;2023-08-06T11:40:28;100179.91;;;16.01;100.00
13068;BME280;6600;51.362;6.686;2023-08-06T11:42:54;100194.25;;;16.02;100.00
13068;BME280;6600;51.362;6.686;2023-08-06T11:45:24;100192.09;;;16.09;100.00
13068;BME280;6600;51.362;6.686;2023-08-06T11:47:50;100189.94;;;16.11;100.00
13068;BME280;6600;51.362;6.686;2023-08-06T11:50:24;100188.88;;;16.17;100.00
13068;BME280;6600;51.362;6.686;2023-08-06T11:52:59;100196.97;;;16.12;100.00
13068;BME280;6600;51.362;6.686;2023-08-06T11:55:26;100196.97;;;16.12;100.00
13068;BME280;6600;51.362;6.686;2023-08-06T11:57:54;100208.91;;;16.21;100.00
13068;BME280;6600;51.362;6.686;2023-08-06T12:00:20;100205.91;;;16.17;100.00
13068;BME280;6600;51.362;6.686;2023-08-06T12:02:48;100213.78;;;16.19;100.00
13068;BME280;6600;51.362;6.686;2023-08-06T12:05:20;100213.00;;;16.24;100.00
13068;BME280;6600;51.362;6.686;2023-08-06T12:10:18;100218.69;;;16.32;100.00
13068;BME280;6600;51.362;6.686;2023-08-06T12:12:46;100226.22;;;16.20;100.00
13068;BME280;6600;51.362;6.686;2023-08-06T12:15:12;100231.38;;;16.27;100.00
13068;BME280;6600;51.362;6.686;2023-08-06T12:17:38;100235.97;;;16.26;100.00
13068;BME280;6600;51.362;6.686;2023-08-06T12:20:05;100228.94;;;16.25;100.00
13068;BME280;6600;51.362;6.686;2023-08-06T12:22:31;100227.91;;;16.41;100.00
13068;BME280;6600;51.362;6.686;2023-08-06T12:25:01;100233.88;;;16.48;100.00
13068;BME280;6600;51.362;6.686;2023-08-06T12:27:27;100236.03;;;16.46;100.00
13068;BME280;6600;51.362;6.686;2023-08-06T12:29:52;100222.50;;;16.46;100.00
13068;BME280;6600;51.362;6.686;2023-08-06T12:32:18;100231.53;;;16.72;100.00
13068;BME280;6600;51.362;6.686;2023-08-06T12:34:44;100230.44;;;16.73;100.00
13068;BME280;6600;51.362;6.686;2023-08-06T12:37:09;100234.00;;;16.79;100.00
13068;BME280;6600;51.362;6.686;2023-08-06T12:39:38;100242.13;;;16.84;100.00
13068;BME280;6600;51.362;6.686;2023-08-06T12:42:04;100243.19;;;16.78;100.00
13068;BME280;6600;51.362;6.686;2023-08-06T12:44:31;100244.81;;;16.79;100.00
13068;BME280;6600;51.362;6.686;2023-08-06T12:46:57;100251.31;;;16.88;100.00
13068;BME280;6600;51.362;6.686;2023-08-06T12:49:23;100257.28;;;17.00;100.00
13068;BME280;6600;51.362;6.686;2023-08-06T12:51:50;100254.03;;;16.98;100.00
13068;BME280;6600;51.362;6.686;2023-08-06T12:54:16;100253.47;;;16.81;100.00
13068;BME280;6600;51.362;6.686;2023-08-06T12:56:43;100263.75;;;16.84;100.00
13068;BME280;6600;51.362;6.686;2023-08-06T12:59:08;100284.34;;;16.95;100.00
13068;BME280;6600;51.362;6.686;2023-08-06T13:01:34;100270.28;;;16.98;100.00
13068;BME280;6600;51.362;6.686;2023-08-06T13:03:59;100282.44;;;16.85;100.00
13068;BME280;6600;51.362;6.686;2023-08-06T13:06:25;100280.00;;;16.94;100.00